createdAt,value
2019-01-30T00:00:25.108Z,982.6
2019-01-30T00:01:23.807Z,982.59
2019-01-30T00:02:22.400Z,982.54
2019-01-30T00:03:20.988Z,982.54
2019-01-30T00:04:19.558Z,982.52
2019-01-30T00:05:18.408Z,982.48
2019-01-30T00:06:17.140Z,982.48
2019-01-30T00:07:15.685Z,982.39
2019-01-30T00:08:14.452Z,982.38
2019-01-30T00:09:13.000Z,982.39
2019-01-30T00:10:11.565Z,982.38
2019-01-30T00:11:10.099Z,982.32
2019-01-30T00:12:09.852Z,982.3
2019-01-30T00:13:07.191Z,982.23
2019-01-30T00:14:05.727Z,982.25
2019-01-30T00:15:04.649Z,982.23
2019-01-30T00:16:03.410Z,982.28
2019-01-30T00:17:02.102Z,982.25
2019-01-30T00:18:00.653Z,982.28
2019-01-30T00:18:59.196Z,982.15
2019-01-30T00:19:57.763Z,982.23
2019-01-30T00:20:56.655Z,982.22
2019-01-30T00:21:55.197Z,982.19
2019-01-30T00:22:53.724Z,982.14
2019-01-30T00:23:52.673Z,982.06
2019-01-30T00:24:51.256Z,982.05
2019-01-30T00:25:49.792Z,982
2019-01-30T00:26:48.319Z,981.99
2019-01-30T00:27:46.886Z,981.95
2019-01-30T00:28:45.416Z,981.94
2019-01-30T00:29:43.980Z,981.92
2019-01-30T00:30:42.835Z,981.93
2019-01-30T00:31:41.379Z,981.87
2019-01-30T00:32:40.309Z,981.88
2019-01-30T00:33:38.861Z,981.81
2019-01-30T00:34:37.375Z,981.83
2019-01-30T00:35:35.922Z,981.77
2019-01-30T00:36:34.478Z,981.74
2019-01-30T00:37:33.049Z,981.72
2019-01-30T00:38:31.583Z,981.74
2019-01-30T00:39:30.138Z,981.8
2019-01-30T00:40:28.936Z,981.83
2019-01-30T00:41:27.480Z,981.81
2019-01-30T00:42:26.064Z,981.79
2019-01-30T00:43:24.853Z,981.8
2019-01-30T00:44:23.386Z,981.79
2019-01-30T00:45:22.004Z,981.77
2019-01-30T00:46:20.588Z,981.72
2019-01-30T00:47:19.133Z,981.68
2019-01-30T00:48:17.672Z,981.64
2019-01-30T00:49:16.241Z,981.67
2019-01-30T00:50:14.930Z,981.68
2019-01-30T00:51:13.492Z,981.71
2019-01-30T00:52:12.169Z,981.63
2019-01-30T00:53:10.966Z,981.68
2019-01-30T00:54:09.522Z,981.69
2019-01-30T00:55:08.185Z,981.66
2019-01-30T00:56:06.790Z,981.63
2019-01-30T00:57:05.345Z,981.66
2019-01-30T00:58:03.885Z,981.68
2019-01-30T00:59:02.443Z,981.69
2019-01-30T01:00:01.002Z,981.73
2019-01-30T01:00:59.531Z,981.66
2019-01-30T01:01:58.358Z,981.64
2019-01-30T01:02:56.920Z,981.66
2019-01-30T01:03:55.460Z,981.63
2019-01-30T01:04:54.319Z,981.64
2019-01-30T01:05:52.883Z,981.67
2019-01-30T01:06:51.423Z,981.66
2019-01-30T01:09:31.783Z,981.64
2019-01-30T01:10:30.556Z,981.65
2019-01-30T01:11:29.143Z,981.64
2019-01-30T01:12:27.847Z,981.65
2019-01-30T01:13:26.403Z,981.63
2019-01-30T01:14:24.955Z,981.6
2019-01-30T01:15:23.471Z,981.65
2019-01-30T01:16:22.104Z,981.65
2019-01-30T01:17:20.610Z,981.62
2019-01-30T01:18:21.523Z,981.6
2019-01-30T01:19:17.707Z,981.63
2019-01-30T01:20:16.258Z,981.57
2019-01-30T01:21:14.939Z,981.61
2019-01-30T01:22:13.490Z,981.5
2019-01-30T01:23:12.116Z,981.51
2019-01-30T01:24:10.996Z,981.47
2019-01-30T01:25:09.563Z,981.42
2019-01-30T01:26:08.111Z,981.38
2019-01-30T01:27:06.668Z,981.34
2019-01-30T01:28:05.589Z,981.33
2019-01-30T01:29:04.215Z,981.33
2019-01-30T01:30:03.093Z,981.36
2019-01-30T01:31:01.618Z,981.3
2019-01-30T01:32:00.163Z,981.24
2019-01-30T01:32:58.722Z,981.23
2019-01-30T01:33:57.261Z,981.21
2019-01-30T01:34:56.730Z,981.15
2019-01-30T01:35:55.303Z,981.16
2019-01-30T01:36:53.847Z,981.11
2019-01-30T01:37:52.798Z,981.05
2019-01-30T01:38:52.313Z,981.03
2019-01-30T01:39:51.170Z,981.05
2019-01-30T01:40:49.563Z,980.98
2019-01-30T01:41:48.270Z,980.9
2019-01-30T01:42:46.909Z,980.95
2019-01-30T01:43:45.379Z,980.9
2019-01-30T01:44:43.934Z,980.87
2019-01-30T01:45:42.475Z,980.79
2019-01-30T01:46:41.009Z,980.81
2019-01-30T01:47:39.545Z,980.78
2019-01-30T01:48:38.085Z,980.82
2019-01-30T01:49:36.672Z,980.72
2019-01-30T01:50:35.216Z,980.78
2019-01-30T01:51:33.762Z,980.75
2019-01-30T01:52:32.572Z,980.72
2019-01-30T01:53:31.195Z,980.68
2019-01-30T01:54:30.118Z,980.72
2019-01-30T01:55:28.663Z,980.72
2019-01-30T01:56:27.212Z,980.72
2019-01-30T01:57:25.761Z,980.7
2019-01-30T01:58:24.619Z,980.68
2019-01-30T01:59:23.180Z,980.71
2019-01-30T02:00:22.117Z,980.65
2019-01-30T02:01:20.697Z,980.67
2019-01-30T02:02:19.321Z,980.61
2019-01-30T02:03:17.888Z,980.6
2019-01-30T02:04:16.735Z,980.5
2019-01-30T02:05:15.276Z,980.49
2019-01-30T02:06:13.823Z,980.53
2019-01-30T02:07:12.713Z,980.44
2019-01-30T02:08:11.262Z,980.44
2019-01-30T02:09:09.870Z,980.4
2019-01-30T02:10:08.805Z,980.38
2019-01-30T02:11:07.349Z,980.41
2019-01-30T02:12:05.985Z,980.41
2019-01-30T02:13:04.805Z,980.39
2019-01-30T02:14:03.346Z,980.38
2019-01-30T02:15:01.882Z,980.36
2019-01-30T02:16:00.458Z,980.33
2019-01-30T02:16:59.010Z,980.32
2019-01-30T02:17:57.573Z,980.34
2019-01-30T02:18:56.472Z,980.37
2019-01-30T02:19:55.144Z,980.36
2019-01-30T02:20:53.801Z,980.3
2019-01-30T02:21:52.414Z,980.32
2019-01-30T02:22:50.958Z,980.32
2019-01-30T02:23:49.503Z,980.22
2019-01-30T02:24:48.117Z,980.2
2019-01-30T02:25:46.672Z,980.2
2019-01-30T02:26:45.217Z,980.12
2019-01-30T02:27:43.760Z,980.11
2019-01-30T02:28:42.990Z,980.08
2019-01-30T02:29:41.561Z,980.08
2019-01-30T02:30:46.970Z,980.02
2019-01-30T02:31:38.706Z,980.01
2019-01-30T02:32:37.273Z,980.01
2019-01-30T02:33:35.821Z,979.97
2019-01-30T02:34:34.618Z,980.05
2019-01-30T02:35:33.182Z,980
2019-01-30T02:36:31.717Z,979.96
2019-01-30T02:37:30.663Z,979.92
2019-01-30T02:38:29.223Z,979.87
2019-01-30T02:39:27.771Z,979.87
2019-01-30T02:40:26.340Z,979.92
2019-01-30T02:41:24.895Z,979.93
2019-01-30T02:42:23.455Z,979.9
2019-01-30T02:43:22.323Z,979.96
2019-01-30T02:44:21.010Z,979.92
2019-01-30T02:45:19.560Z,979.9
2019-01-30T02:46:18.341Z,979.86
2019-01-30T02:47:16.899Z,979.9
2019-01-30T02:48:15.482Z,979.87
2019-01-30T02:49:14.088Z,979.85
2019-01-30T02:50:12.929Z,979.8
2019-01-30T02:51:11.488Z,979.8
2019-01-30T02:52:10.331Z,979.76
2019-01-30T02:53:08.913Z,979.81
2019-01-30T02:54:07.469Z,979.79
2019-01-30T02:55:06.004Z,979.83
2019-01-30T02:56:04.564Z,979.86
2019-01-30T02:57:03.129Z,979.79
2019-01-30T02:58:01.673Z,979.86
2019-01-30T02:59:00.598Z,979.84
2019-01-30T02:59:59.239Z,979.81
2019-01-30T03:00:59.114Z,979.81
2019-01-30T03:01:56.553Z,979.82
2019-01-30T03:02:55.134Z,979.77
2019-01-30T03:03:53.675Z,979.8
2019-01-30T03:04:52.260Z,979.77
2019-01-30T03:05:50.891Z,979.76
2019-01-30T03:06:49.442Z,979.72
2019-01-30T03:07:48.065Z,979.76
2019-01-30T03:08:46.743Z,979.7
2019-01-30T03:09:45.326Z,979.69
2019-01-30T03:10:43.878Z,979.64
2019-01-30T03:11:42.757Z,979.65
2019-01-30T03:12:41.391Z,979.56
2019-01-30T03:13:39.945Z,979.59
2019-01-30T03:14:38.774Z,979.6
2019-01-30T03:15:37.317Z,979.54
2019-01-30T03:16:35.867Z,979.61
2019-01-30T03:17:34.787Z,979.62
2019-01-30T03:18:33.315Z,979.65
2019-01-30T03:19:31.866Z,979.62
2019-01-30T03:20:30.436Z,979.75
2019-01-30T03:21:28.998Z,979.63
2019-01-30T03:22:27.602Z,979.69
2019-01-30T03:23:26.408Z,979.66
2019-01-30T03:24:25.192Z,979.69
2019-01-30T03:25:23.908Z,979.67
2019-01-30T03:26:22.521Z,979.65
2019-01-30T03:27:21.094Z,979.6
2019-01-30T03:28:19.641Z,979.59
2019-01-30T03:29:18.502Z,979.63
2019-01-30T03:30:17.175Z,979.58
2019-01-30T03:31:18.473Z,979.56
2019-01-30T03:32:14.547Z,979.6
2019-01-30T03:33:13.059Z,979.49
2019-01-30T03:34:11.711Z,979.54
2019-01-30T03:35:10.240Z,979.54
2019-01-30T03:36:08.844Z,979.57
2019-01-30T03:37:07.378Z,979.57
2019-01-30T03:38:05.936Z,979.5
2019-01-30T03:39:04.697Z,979.51
2019-01-30T03:40:03.231Z,979.47
2019-01-30T03:41:01.783Z,979.46
2019-01-30T03:42:00.673Z,979.38
2019-01-30T03:42:59.222Z,979.4
2019-01-30T03:43:57.754Z,979.37
2019-01-30T03:44:56.417Z,979.37
2019-01-30T03:45:55.171Z,979.39
2019-01-30T03:46:53.736Z,979.37
2019-01-30T03:47:52.354Z,979.35
2019-01-30T03:48:51.016Z,979.37
2019-01-30T03:49:49.576Z,979.34
2019-01-30T03:50:48.375Z,979.34
2019-01-30T03:51:47.043Z,979.34
2019-01-30T03:52:45.550Z,979.32
2019-01-30T03:53:44.515Z,979.26
2019-01-30T03:54:43.133Z,979.3
2019-01-30T03:55:42.470Z,979.27
2019-01-30T03:56:41.183Z,979.31
2019-01-30T03:57:39.728Z,979.25
2019-01-30T03:58:38.515Z,979.28
2019-01-30T03:59:37.083Z,979.26
2019-01-30T04:00:35.647Z,979.21
2019-01-30T04:01:34.568Z,979.19
2019-01-30T04:02:33.216Z,979.29
2019-01-30T04:03:31.789Z,979.22
2019-01-30T04:04:30.538Z,979.24
2019-01-30T04:05:29.158Z,979.21
2019-01-30T04:06:27.631Z,979.19
2019-01-30T04:07:26.175Z,979.2
2019-01-30T04:08:24.743Z,979.24
2019-01-30T04:09:23.357Z,979.17
2019-01-30T04:10:21.984Z,979.15
2019-01-30T04:11:20.717Z,979.2
2019-01-30T04:12:19.278Z,979.14
2019-01-30T04:13:17.804Z,979.1
2019-01-30T04:14:16.706Z,979.19
2019-01-30T04:15:15.458Z,979.13
2019-01-30T04:16:13.964Z,979.11
2019-01-30T04:17:12.797Z,979.11
2019-01-30T04:18:11.317Z,979.17
2019-01-30T04:19:09.893Z,979.14
2019-01-30T04:20:08.776Z,979.09
2019-01-30T04:21:07.349Z,979.1
2019-01-30T04:22:05.890Z,979.11
2019-01-30T04:23:04.443Z,979.11
2019-01-30T04:24:03.005Z,979.11
2019-01-30T04:25:01.555Z,979.09
2019-01-30T04:26:00.490Z,979.05
2019-01-30T04:26:59.389Z,978.99
2019-01-30T04:27:57.954Z,979.09
2019-01-30T04:28:56.533Z,979.1
2019-01-30T04:29:55.109Z,979.05
2019-01-30T04:30:53.662Z,979.1
2019-01-30T04:31:52.569Z,979.09
2019-01-30T04:32:51.251Z,979.09
2019-01-30T04:33:50.856Z,979.05
2019-01-30T04:34:49.397Z,979.03
2019-01-30T04:35:48.012Z,979.05
2019-01-30T04:36:46.575Z,979.04
2019-01-30T04:37:45.670Z,978.97
2019-01-30T04:38:44.471Z,979
2019-01-30T04:39:43.056Z,979
2019-01-30T04:40:41.622Z,978.94
2019-01-30T04:41:40.151Z,978.92
2019-01-30T04:42:38.786Z,978.92
2019-01-30T04:43:37.292Z,978.89
2019-01-30T04:44:35.853Z,978.85
2019-01-30T04:45:34.678Z,978.8
2019-01-30T04:46:33.226Z,978.8
2019-01-30T04:47:31.770Z,978.83
2019-01-30T04:48:30.710Z,978.74
2019-01-30T04:49:29.273Z,978.69
2019-01-30T04:50:27.803Z,978.75
2019-01-30T04:51:26.371Z,978.77
2019-01-30T04:52:25.054Z,978.69
2019-01-30T04:53:23.683Z,978.72
2019-01-30T04:54:22.331Z,978.73
2019-01-30T04:55:21.065Z,978.71
2019-01-30T04:56:19.651Z,978.72
2019-01-30T04:57:18.311Z,978.65
2019-01-30T04:58:16.915Z,978.69
2019-01-30T04:59:15.522Z,978.66
2019-01-30T05:00:14.360Z,978.61
2019-01-30T05:01:13.099Z,978.61
2019-01-30T05:02:11.636Z,978.58
2019-01-30T05:03:10.418Z,978.59
2019-01-30T05:04:08.991Z,978.53
2019-01-30T05:05:07.531Z,978.54
2019-01-30T05:06:06.082Z,978.49
2019-01-30T05:07:04.642Z,978.48
2019-01-30T05:08:03.159Z,978.45
2019-01-30T05:09:01.714Z,978.44
2019-01-30T05:10:00.562Z,978.43
2019-01-30T05:10:59.317Z,978.35
2019-01-30T05:11:57.998Z,978.35
2019-01-30T05:12:56.592Z,978.37
2019-01-30T05:13:55.131Z,978.4
2019-01-30T05:14:53.704Z,978.39
2019-01-30T05:15:52.242Z,978.39
2019-01-30T05:16:50.813Z,978.4
2019-01-30T05:17:49.351Z,978.36
2019-01-30T05:18:47.897Z,978.3
2019-01-30T05:19:46.759Z,978.32
2019-01-30T05:20:45.314Z,978.33
2019-01-30T05:21:43.863Z,978.33
2019-01-30T05:22:42.713Z,978.29
2019-01-30T05:23:41.267Z,978.27
2019-01-30T05:24:39.905Z,978.28
2019-01-30T05:25:38.453Z,978.26
2019-01-30T05:26:37.205Z,978.25
2019-01-30T05:27:35.775Z,978.22
2019-01-30T05:28:34.814Z,978.26
2019-01-30T05:29:33.422Z,978.23
2019-01-30T05:30:32.000Z,978.18
2019-01-30T05:31:30.861Z,978.22
2019-01-30T05:32:29.427Z,978.18
2019-01-30T05:33:27.956Z,978.14
2019-01-30T05:34:26.848Z,978.14
2019-01-30T05:35:25.406Z,978.15
2019-01-30T05:36:23.982Z,978.16
2019-01-30T05:37:22.515Z,978.14
2019-01-30T05:38:21.063Z,978.12
2019-01-30T05:39:19.653Z,978.12
2019-01-30T05:40:18.539Z,978.07
2019-01-30T05:41:17.284Z,978.1
2019-01-30T05:42:15.975Z,978.03
2019-01-30T05:43:14.541Z,978.04
2019-01-30T05:44:13.144Z,978.06
2019-01-30T05:45:12.088Z,978.05
2019-01-30T05:46:10.922Z,978.08
2019-01-30T05:47:09.475Z,978.02
2019-01-30T05:48:08.256Z,978.02
2019-01-30T05:49:06.712Z,978.05
2019-01-30T05:50:05.265Z,978
2019-01-30T05:51:03.832Z,978.02
2019-01-30T05:52:02.709Z,977.98
2019-01-30T05:53:01.471Z,977.99
2019-01-30T05:54:00.189Z,977.99
2019-01-30T05:54:58.801Z,978.01
2019-01-30T05:55:57.348Z,977.96
2019-01-30T05:56:55.872Z,977.97
2019-01-30T05:57:54.440Z,978.01
2019-01-30T05:58:53.201Z,977.98
2019-01-30T05:59:51.756Z,977.97
2019-01-30T06:00:50.753Z,978
2019-01-30T06:01:49.308Z,978.03
2019-01-30T06:02:47.850Z,978.06
2019-01-30T06:03:46.409Z,977.92
2019-01-30T06:04:44.965Z,978
2019-01-30T06:05:43.518Z,978.06
2019-01-30T06:06:42.211Z,978.1
2019-01-30T06:07:41.007Z,978.03
2019-01-30T06:08:39.537Z,977.93
2019-01-30T06:09:38.436Z,977.98
2019-01-30T06:10:37.069Z,978.02
2019-01-30T06:11:35.640Z,978.09
2019-01-30T06:12:34.262Z,978.04
2019-01-30T06:13:32.944Z,978.08
2019-01-30T06:14:31.508Z,978.08
2019-01-30T06:15:30.117Z,978.08
2019-01-30T06:16:28.937Z,978.08
2019-01-30T06:17:27.509Z,978.03
2019-01-30T06:18:26.092Z,978.11
2019-01-30T06:19:24.710Z,978.11
2019-01-30T06:20:23.263Z,978.15
2019-01-30T06:21:21.799Z,978.1
2019-01-30T06:22:20.644Z,978.03
2019-01-30T06:23:19.266Z,978.08
2019-01-30T06:24:17.870Z,978.08
2019-01-30T06:25:16.680Z,978.08
2019-01-30T06:26:15.240Z,978.02
2019-01-30T06:27:13.791Z,977.99
2019-01-30T06:28:12.378Z,978.06
2019-01-30T06:29:11.096Z,978.01
2019-01-30T06:30:09.695Z,977.99
2019-01-30T06:31:08.348Z,977.94
2019-01-30T06:32:07.105Z,978.01
2019-01-30T06:33:05.621Z,978.02
2019-01-30T06:34:04.335Z,978.07
2019-01-30T06:35:02.938Z,978.1
2019-01-30T06:36:01.515Z,977.95
2019-01-30T06:37:00.060Z,978.05
2019-01-30T06:37:58.960Z,978.09
2019-01-30T06:38:57.743Z,978.07
2019-01-30T06:39:56.467Z,978.12
2019-01-30T06:40:55.100Z,978.1
2019-01-30T06:41:53.638Z,978.12
2019-01-30T06:42:52.457Z,978.14
2019-01-30T06:43:51.169Z,978.15
2019-01-30T06:44:49.722Z,978.11
2019-01-30T06:45:48.459Z,978.13
2019-01-30T06:46:47.010Z,978.13
2019-01-30T06:47:45.636Z,978.14
2019-01-30T06:48:44.181Z,978.14
2019-01-30T06:49:42.722Z,978.23
2019-01-30T06:50:41.266Z,978.23
2019-01-30T06:51:40.146Z,978.26
2019-01-30T06:52:39.080Z,978.16
2019-01-30T06:53:37.610Z,978.17
2019-01-30T06:54:36.263Z,978.18
2019-01-30T06:55:35.007Z,978.11
2019-01-30T06:56:33.563Z,978.17
2019-01-30T06:57:32.262Z,978.1
2019-01-30T06:58:31.104Z,978.18
2019-01-30T06:59:29.779Z,978.14
2019-01-30T07:00:28.305Z,978.13
2019-01-30T07:01:26.865Z,978.18
2019-01-30T07:02:31.990Z,978.12
2019-01-30T07:03:23.934Z,978.11
2019-01-30T07:04:22.844Z,978.24
2019-01-30T07:05:21.408Z,978.17
2019-01-30T07:06:19.995Z,978.15
2019-01-30T07:07:18.791Z,978.12
2019-01-30T07:08:17.382Z,978.21
2019-01-30T07:09:16.000Z,978.23
2019-01-30T07:10:14.642Z,978.25
2019-01-30T07:11:13.371Z,978.21
2019-01-30T07:12:12.004Z,978.24
2019-01-30T07:13:10.880Z,978.22
2019-01-30T07:14:09.453Z,978.23
2019-01-30T07:15:08.012Z,978.25
2019-01-30T07:16:06.541Z,978.27
2019-01-30T07:17:05.174Z,978.32
2019-01-30T07:18:03.795Z,978.29
2019-01-30T07:19:02.620Z,978.3
2019-01-30T07:20:01.300Z,978.3
2019-01-30T07:21:00.034Z,978.3
2019-01-30T07:21:58.688Z,978.37
2019-01-30T07:22:57.235Z,978.34
2019-01-30T07:23:55.763Z,978.44
2019-01-30T07:24:54.662Z,978.41
2019-01-30T07:25:53.457Z,978.43
2019-01-30T07:26:52.206Z,978.48
2019-01-30T07:27:50.843Z,978.48
2019-01-30T07:28:49.419Z,978.48
2019-01-30T07:29:48.160Z,978.52
2019-01-30T07:30:47.036Z,978.5
2019-01-30T07:31:45.594Z,978.55
2019-01-30T07:32:44.224Z,978.58
2019-01-30T07:33:42.792Z,978.67
2019-01-30T07:34:41.323Z,978.65
2019-01-30T07:35:39.912Z,978.66
2019-01-30T07:36:38.876Z,978.68
2019-01-30T07:37:37.385Z,978.66
2019-01-30T07:38:35.936Z,978.59
2019-01-30T07:39:34.845Z,978.63
2019-01-30T07:40:33.393Z,978.63
2019-01-30T07:41:31.953Z,978.63
2019-01-30T07:42:30.604Z,978.67
2019-01-30T07:43:29.332Z,978.66
2019-01-30T07:44:27.998Z,978.57
2019-01-30T07:45:26.901Z,978.58
2019-01-30T07:46:25.477Z,978.59
2019-01-30T07:47:24.046Z,978.64
2019-01-30T07:48:22.592Z,978.66
2019-01-30T07:49:21.180Z,978.7
2019-01-30T07:50:19.766Z,978.71
2019-01-30T07:51:18.556Z,978.68
2019-01-30T07:52:17.306Z,978.73
2019-01-30T07:53:15.939Z,978.78
2019-01-30T07:54:14.575Z,978.77
2019-01-30T07:55:13.122Z,978.8
2019-01-30T07:56:11.672Z,978.86
2019-01-30T07:57:10.218Z,978.91
2019-01-30T07:58:08.788Z,978.94
2019-01-30T07:59:07.473Z,978.96
2019-01-30T08:00:06.075Z,978.9
2019-01-30T08:01:05.042Z,978.91
2019-01-30T08:02:03.576Z,978.91
2019-01-30T08:03:02.338Z,978.96
2019-01-30T08:04:01.076Z,978.94
2019-01-30T08:04:59.631Z,978.95
2019-01-30T08:05:58.298Z,978.94
2019-01-30T08:06:57.043Z,978.97
2019-01-30T08:07:55.578Z,979.02
2019-01-30T08:08:54.244Z,979.01
2019-01-30T08:09:52.927Z,978.97
2019-01-30T08:10:51.480Z,978.96
2019-01-30T08:11:50.035Z,978.99
2019-01-30T08:12:48.892Z,979.01
2019-01-30T08:13:47.443Z,979.07
2019-01-30T08:14:46.037Z,979.02
2019-01-30T08:15:44.869Z,979.03
2019-01-30T08:16:43.464Z,979.06
2019-01-30T08:17:42.020Z,979.14
2019-01-30T08:18:40.565Z,979.14
2019-01-30T08:19:39.203Z,979.08
2019-01-30T08:20:37.787Z,979.06
2019-01-30T08:21:36.502Z,979.07
2019-01-30T08:22:35.182Z,979.1
2019-01-30T08:23:33.769Z,979.13
2019-01-30T08:24:32.540Z,979.07
2019-01-30T08:25:31.551Z,979.07
2019-01-30T08:26:29.893Z,979.13
2019-01-30T08:27:28.489Z,979.13
2019-01-30T08:28:27.059Z,979.1
2019-01-30T08:29:25.645Z,979.08
2019-01-30T08:30:24.239Z,979.09
2019-01-30T08:31:23.486Z,979.09
2019-01-30T08:32:22.342Z,979.08
2019-01-30T08:33:21.574Z,979.11
2019-01-30T08:34:18.769Z,979.14
2019-01-30T08:35:17.329Z,979.22
2019-01-30T08:36:15.899Z,979.22
2019-01-30T08:37:14.745Z,979.23
2019-01-30T08:38:13.628Z,979.21
2019-01-30T08:39:12.275Z,979.25
2019-01-30T08:40:10.829Z,979.27
2019-01-30T08:41:09.364Z,979.25
2019-01-30T08:42:07.922Z,979.32
2019-01-30T08:43:06.486Z,979.28
2019-01-30T08:44:05.217Z,979.28
2019-01-30T08:45:03.759Z,979.24
2019-01-30T08:46:02.385Z,979.33
2019-01-30T08:47:01.308Z,979.32
2019-01-30T08:47:59.861Z,979.28
2019-01-30T08:50:40.279Z,979.33
2019-01-30T08:51:38.946Z,979.27
2019-01-30T08:52:37.487Z,979.25
2019-01-30T08:53:36.101Z,979.26
2019-01-30T08:54:34.865Z,979.27
2019-01-30T08:55:33.440Z,979.29
2019-01-30T08:56:38.707Z,979.29
2019-01-30T08:57:30.540Z,979.32
2019-01-30T08:58:29.115Z,979.28
2019-01-30T08:59:27.690Z,979.35
2019-01-30T09:00:26.258Z,979.32
2019-01-30T09:01:25.098Z,979.32
2019-01-30T09:02:23.656Z,979.32
2019-01-30T09:03:22.537Z,979.29
2019-01-30T09:04:21.110Z,979.27
2019-01-30T09:05:19.677Z,979.31
2019-01-30T09:06:18.235Z,979.35
2019-01-30T09:07:16.868Z,979.26
2019-01-30T09:08:15.440Z,979.28
2019-01-30T09:09:14.000Z,979.28
2019-01-30T09:10:12.685Z,979.28
2019-01-30T09:11:11.371Z,979.29
2019-01-30T09:12:10.045Z,979.25
2019-01-30T09:13:08.694Z,979.25
2019-01-30T09:14:07.251Z,979.31
2019-01-30T09:15:05.878Z,979.25
2019-01-30T09:16:04.481Z,979.27
2019-01-30T09:17:06.615Z,979.26
2019-01-30T09:18:02.342Z,979.18
2019-01-30T09:19:00.917Z,979.31
2019-01-30T09:19:59.486Z,979.23
2019-01-30T09:20:58.029Z,979.25
2019-01-30T09:21:56.834Z,979.31
2019-01-30T09:22:57.460Z,979.33
2019-01-30T09:23:56.241Z,979.35
2019-01-30T09:24:55.572Z,979.31
2019-01-30T09:25:54.302Z,979.29
2019-01-30T09:26:52.964Z,979.39
2019-01-30T09:27:51.653Z,979.39
2019-01-30T09:28:50.288Z,979.34
2019-01-30T09:29:49.159Z,979.31
2019-01-30T09:30:47.792Z,979.44
2019-01-30T09:31:46.464Z,979.44
2019-01-30T09:32:45.020Z,979.41
2019-01-30T09:33:43.729Z,979.44
2019-01-30T09:34:42.167Z,979.43
2019-01-30T09:35:41.086Z,979.47
2019-01-30T09:36:39.674Z,979.38
2019-01-30T09:37:38.197Z,979.47
2019-01-30T09:38:37.040Z,979.42
2019-01-30T09:39:35.663Z,979.46
2019-01-30T09:40:34.969Z,979.44
2019-01-30T09:41:33.603Z,979.44
2019-01-30T09:42:33.256Z,979.42
2019-01-30T09:43:31.190Z,979.47
2019-01-30T09:44:29.784Z,979.45
2019-01-30T09:45:28.578Z,979.44
2019-01-30T09:46:27.039Z,979.51
2019-01-30T09:47:25.577Z,979.51
2019-01-30T09:48:24.134Z,979.52
2019-01-30T09:49:22.842Z,979.61
2019-01-30T09:50:21.617Z,979.57
2019-01-30T09:51:20.301Z,979.6
2019-01-30T09:52:26.613Z,979.61
2019-01-30T09:53:17.655Z,979.62
2019-01-30T09:54:16.265Z,979.61
2019-01-30T09:55:14.843Z,979.63
2019-01-30T09:56:15.358Z,979.73
2019-01-30T09:57:12.153Z,979.69
2019-01-30T09:58:10.889Z,979.69
2019-01-30T09:59:09.561Z,979.7
2019-01-30T10:00:08.223Z,979.71
2019-01-30T10:01:06.857Z,979.73
2019-01-30T10:02:06.336Z,979.78
2019-01-30T10:03:05.633Z,979.75
2019-01-30T10:04:04.479Z,979.78
2019-01-30T10:05:03.150Z,979.82
2019-01-30T10:06:01.739Z,979.81
2019-01-30T10:07:00.418Z,979.79
2019-01-30T10:07:59.249Z,979.84
2019-01-30T10:08:57.841Z,979.74
2019-01-30T10:09:56.430Z,979.77
2019-01-30T10:12:40.792Z,979.79
2019-01-30T10:13:39.490Z,979.82
2019-01-30T10:14:38.201Z,979.83
2019-01-30T10:15:36.852Z,979.84
2019-01-30T10:16:35.391Z,979.84
2019-01-30T10:17:33.975Z,979.82
2019-01-30T10:18:32.905Z,979.82
2019-01-30T10:19:31.437Z,979.88
2019-01-30T10:20:29.969Z,979.87
2019-01-30T10:21:28.890Z,979.82
2019-01-30T10:22:27.467Z,979.93
2019-01-30T10:23:26.009Z,979.94
2019-01-30T10:24:24.539Z,979.95
2019-01-30T10:41:30.846Z,980.04
2019-01-30T10:42:29.407Z,980.1
2019-01-30T10:43:27.985Z,980.12
2019-01-30T10:44:26.950Z,980.12
2019-01-30T10:45:25.499Z,980.09
2019-01-30T10:46:24.046Z,980.17
2019-01-30T10:47:22.719Z,980.16
2019-01-30T10:48:21.382Z,980.22
2019-01-30T10:49:19.945Z,980.21
2019-01-30T10:50:18.613Z,980.18
2019-01-30T10:51:17.308Z,980.23
2019-01-30T10:52:15.848Z,980.18
2019-01-30T10:53:14.600Z,980.16
2019-01-30T10:54:13.272Z,980.15
2019-01-30T10:55:11.722Z,980.15
2019-01-30T10:56:10.313Z,980.13
2019-01-30T10:57:08.829Z,980.12
2019-01-30T10:58:07.405Z,980.22
2019-01-30T10:59:05.986Z,980.19
2019-01-30T11:00:04.778Z,980.14
2019-01-30T11:01:03.492Z,980.13
2019-01-30T11:02:02.203Z,980.14
2019-01-30T11:03:00.835Z,980.18
2019-01-30T11:03:59.515Z,980.18
2019-01-30T11:04:58.080Z,980.19
2019-01-30T11:05:56.705Z,980.22
2019-01-30T11:06:55.300Z,980.25
2019-01-30T11:07:53.871Z,980.32
2019-01-30T11:08:52.861Z,980.24
2019-01-30T11:09:51.412Z,980.21
2019-01-30T11:10:50.894Z,980.3
2019-01-30T11:14:28.979Z,980.27
2019-01-30T11:15:27.496Z,980.26
2019-01-30T11:16:26.036Z,980.34
2019-01-30T11:17:24.885Z,980.27
2019-01-30T11:18:23.429Z,980.29
2019-01-30T11:42:57.004Z,980.53
2019-01-30T11:43:55.554Z,980.48
2019-01-30T11:44:54.146Z,980.54
2019-01-30T11:45:52.745Z,980.6
2019-01-30T11:46:51.293Z,980.61
2019-01-30T11:47:49.955Z,980.56
2019-01-30T11:48:56.135Z,980.61
2019-01-30T11:49:47.479Z,980.63
2019-01-30T11:50:46.215Z,980.56
2019-01-30T11:51:44.782Z,980.64
2019-01-30T11:52:43.353Z,980.62
2019-01-30T11:53:41.910Z,980.65
2019-01-30T11:54:40.842Z,980.74
2019-01-30T11:55:39.545Z,980.66
2019-01-30T11:56:38.076Z,980.74
2019-01-30T11:57:36.834Z,980.75
2019-01-30T11:58:35.368Z,980.76
2019-01-30T11:59:34.117Z,980.73
2019-01-30T12:00:32.920Z,980.69
2019-01-30T12:01:31.571Z,980.75
2019-01-30T12:02:30.378Z,980.71
2019-01-30T12:03:28.959Z,980.73
2019-01-30T12:04:27.533Z,980.8
2019-01-30T12:05:26.086Z,980.84
2019-01-30T12:06:24.722Z,980.81
2019-01-30T12:07:23.374Z,980.91
2019-01-30T12:08:22.007Z,980.86
2019-01-30T12:09:20.855Z,980.9
2019-01-30T12:10:19.430Z,980.85
2019-01-30T12:11:17.994Z,980.96
2019-01-30T12:12:16.583Z,980.93
2019-01-30T12:13:15.138Z,980.93
2019-01-30T12:14:13.686Z,980.94
2019-01-30T12:15:12.246Z,981.03
2019-01-30T12:16:10.793Z,980.97
2019-01-30T12:17:09.355Z,981
2019-01-30T12:18:07.898Z,981.02
2019-01-30T12:19:06.598Z,981.09
2019-01-30T12:20:05.160Z,981.07
2019-01-30T12:21:03.702Z,981.18
2019-01-30T12:22:02.271Z,981.14
2019-01-30T12:23:01.050Z,981.18
2019-01-30T12:23:59.597Z,981.29
2019-01-30T12:24:58.359Z,981.18
2019-01-30T12:25:57.003Z,981.2
2019-01-30T12:26:55.722Z,981.31
2019-01-30T12:27:54.330Z,981.25
2019-01-30T12:28:53.134Z,981.32
2019-01-30T12:29:51.682Z,981.31
2019-01-30T12:30:50.333Z,981.38
2019-01-30T12:31:48.899Z,981.3
2019-01-30T12:32:47.445Z,981.28
2019-01-30T12:33:45.994Z,981.48
2019-01-30T12:34:44.543Z,981.32
2019-01-30T12:35:43.205Z,981.34
2019-01-30T12:36:41.769Z,981.26
2019-01-30T12:37:40.323Z,981.3
2019-01-30T12:38:39.046Z,981.37
2019-01-30T12:39:37.611Z,981.36
2019-01-30T12:40:36.289Z,981.38
2019-01-30T12:41:35.777Z,981.36
2019-01-30T12:42:33.571Z,981.44
2019-01-30T12:43:32.116Z,981.38
2019-01-30T12:44:30.692Z,981.45
2019-01-30T12:45:29.259Z,981.27
2019-01-30T12:46:27.807Z,981.45
2019-01-30T12:47:26.748Z,981.34
2019-01-30T12:48:25.354Z,981.53
2019-01-30T12:49:23.961Z,981.43
2019-01-30T12:50:22.695Z,981.46
2019-01-30T12:51:21.283Z,981.43
2019-01-30T12:52:19.798Z,981.53
2019-01-30T12:53:18.362Z,981.53
2019-01-30T12:54:17.042Z,981.55
2019-01-30T12:55:15.605Z,981.59
2019-01-30T12:56:14.288Z,981.69
2019-01-30T12:57:13.035Z,981.64
2019-01-30T12:58:11.593Z,981.55
2019-01-30T12:59:10.338Z,981.68
2019-01-30T13:00:08.914Z,981.58
2019-01-30T13:01:07.435Z,981.5
2019-01-30T13:02:06.002Z,981.56